Flight Track Log - Related Links

Times and Time Zones

All times are in EDT time to prevent confusion due to time zone crossing. See the CTL61 flight status page for this flight to view local times or setup timezone preferences in your user account.

Time Position Orientation Groundspeed Altitude Reporting Facility
EDT Latitude Longitude Course Direction KTS MPH feet Rate Location/Type
Wed 09:00:35 PM 39.9933 -82.8900 150° Southeast 91 105 1,200  Level Indianapolis Center
Wed 09:01:47 PM 39.9636 -82.8678 150° Southeast 108 124 2,500 957 Climbing Indianapolis Center
Wed 09:02:09 PM 39.9586 -82.8647 155° Southeast 106 122 2,700 885 Climbing Indianapolis Center
Wed 09:02:48 PM 39.9353 -82.8508 155° Southeast 117 135 3,400 885 Climbing Indianapolis Center
Wed 09:03:10 PM 39.9300 -82.8467 149° Southeast 109 125 3,600 806 Climbing Indianapolis Center
Wed 09:03:55 PM 39.9053 -82.8311 154° Southeast 117 135 4,300 885 Climbing Indianapolis Center
Wed 09:04:11 PM 39.9000 -82.8283 158° South 114 131 4,500 537 Climbing Indianapolis Center
Wed 09:05:02 PM 39.8669 -82.8106 158° South 129 148 4,900 378 Climbing Indianapolis Center
Wed 09:06:02 PM 39.8286 -82.7872 155° Southeast 156 180 5,200 408 Climbing Indianapolis Center
Wed 09:06:45 PM 39.8025 -82.7733 158° South 154 177 5,600 658 Climbing Indianapolis Center
Wed 09:07:15 PM 39.7833 -82.7636 159° South 146 168 6,000 822 Climbing Indianapolis Center
Wed 09:07:58 PM 39.7600 -82.7497 155° Southeast 133 153 6,600 787 Climbing Indianapolis Center
Wed 09:08:16 PM 39.7503 -82.7419 148° Southeast 136 157 6,800 400 Climbing Indianapolis Center
Wed 09:08:58 PM 39.7258 -82.7269 155° Southeast 132 152 7,000 197 Climbing Indianapolis Center
Wed 09:09:17 PM 39.7153 -82.7197 152° Southeast 137 158 7,000  Level Indianapolis Center
Wed 09:10:19 PM 39.6750 -82.6939 154° Southeast 154 177 7,000  Level Indianapolis Center
Wed 09:11:20 PM 39.6325 -82.6686 155° Southeast 163 188 7,000  Level Indianapolis Center
Wed 09:12:21 PM 39.5911 -82.6419 154° Southeast 164 189 7,000  Level Indianapolis Center
Wed 09:13:22 PM 39.5503 -82.6131 151° Southeast 165 190 7,000 -49 Level Indianapolis Center
Wed 09:14:23 PM 39.5103 -82.5847 151° Southeast 164 189 6,900  Descending Indianapolis Center
Wed 09:15:25 PM 39.4672 -82.5625 158° South 164 189 7,000 49 Climbing Indianapolis Center
Wed 09:16:26 PM 39.4258 -82.5342 152° Southeast 166 191 7,000  Level Indianapolis Center
Wed 09:17:27 PM 39.3836 -82.5075 154° Southeast 167 192 7,000  Level Indianapolis Center
Wed 09:18:28 PM 39.3433 -82.4808 153° Southeast 163 188 7,000  Level Indianapolis Center
Wed 09:19:29 PM 39.2994 -82.4533 154° Southeast 162 186 7,000  Level Indianapolis Center
Wed 09:20:31 PM 39.2603 -82.4267 152° Southeast 160 184 7,000  Level Indianapolis Center
Wed 09:21:32 PM 39.2189 -82.4014 155° Southeast 163 188 7,000  Level Indianapolis Center
Wed 09:22:33 PM 39.1786 -82.3756 154° Southeast 162 186 7,000 -49 Level Indianapolis Center
Wed 09:23:34 PM 39.1369 -82.3475 152° Southeast 167 192 6,900  Descending Indianapolis Center
Wed 09:24:35 PM 39.0953 -82.3217 154° Southeast 167 192 7,000 49 Climbing Indianapolis Center
Wed 09:25:37 PM 39.0522 -82.2961 155° Southeast 168 193 7,000 -49 Level Indianapolis Center
Wed 09:26:38 PM 39.0103 -82.2675 152° Southeast 171 197 6,900  Descending Indianapolis Center
Wed 09:27:39 PM 38.9672 -82.2408 154° Southeast 172 198 7,000 49 Climbing Indianapolis Center
Wed 09:28:40 PM 38.9253 -82.2139 153° Southeast 169 194 7,000  Level Indianapolis Center
Wed 09:29:41 PM 38.8739 -82.1819 154° Southeast 170 196 7,000  Level Indianapolis Center
Wed 09:30:43 PM 38.8322 -82.1553 153° Southeast 169 194 7,000  Level Indianapolis Center
Wed 09:31:44 PM 38.7892 -82.1269 153° Southeast 173 199 7,000  Level Indianapolis Center
Wed 09:32:45 PM 38.7461 -82.1017 155° Southeast 171 197 7,000  Level Indianapolis Center
Wed 09:33:46 PM 38.7039 -82.0733 152° Southeast 171 197 7,000  Level Indianapolis Center
Wed 09:34:47 PM 38.6617 -82.0478 155° Southeast 169 194 7,000  Level Indianapolis Center
Wed 09:35:48 PM 38.6194 -82.0222 155° Southeast 169 194 7,000  Level Indianapolis Center
Wed 09:36:50 PM 38.5781 -81.9947 153° Southeast 168 193 7,000  Level Indianapolis Center
Wed 09:37:51 PM 38.5369 -81.9703 155° Southeast 165 190 7,000  Level Indianapolis Center
Wed 09:38:52 PM 38.4978 -81.9456 154° Southeast 158 182 7,000  Level Indianapolis Center
Wed 09:39:53 PM 38.4500 -81.9147 153° Southeast 160 184 7,000  Level Indianapolis Center
Wed 09:40:54 PM 38.4094 -81.8906 155° Southeast 161 185 7,000  Level Indianapolis Center
Wed 09:41:55 PM 38.3692 -81.8653 154° Southeast 161 185 7,000  Level Indianapolis Center
Wed 09:42:56 PM 38.3294 -81.8414 155° Southeast 159 183 7,000  Level Indianapolis Center
Wed 09:43:58 PM 38.2906 -81.8153 152° Southeast 158 182 7,000  Level Indianapolis Center
Wed 09:44:59 PM 38.2506 -81.7919 155° Southeast 158 182 7,000  Level Indianapolis Center
Wed 09:46:00 PM 38.2100 -81.7678 155° Southeast 160 184 7,000  Level Indianapolis Center
Wed 09:47:01 PM 38.1714 -81.7408 151° Southeast 161 185 7,000  Level Indianapolis Center
Wed 09:48:02 PM 38.1317 -81.7175 155° Southeast 159 183 7,000  Level Indianapolis Center
Wed 09:49:03 PM 38.0925 -81.6939 155° Southeast 157 181 7,000  Level Indianapolis Center
Wed 09:50:05 PM 38.0447 -81.6650 155° Southeast 156 180 7,000  Level Indianapolis Center
Wed 09:51:06 PM 38.0067 -81.6408 153° Southeast 153 176 7,000  Level Indianapolis Center
Wed 09:52:07 PM 37.9667 -81.6175 155° Southeast 156 180 7,000  Level Indianapolis Center
Wed 09:53:08 PM 37.9281 -81.5956 156° South 153 176 7,000  Level Indianapolis Center
Wed 09:54:09 PM 37.8894 -81.5708 153° Southeast 155 178 7,000  Level Indianapolis Center
Wed 09:55:10 PM 37.8506 -81.5464 154° Southeast 156 180 7,000  Level Indianapolis Center
Wed 09:56:11 PM 37.8111 -81.5203 152° Southeast 157 181 7,000  Level Indianapolis Center
Wed 09:57:12 PM 37.7711 -81.4972 156° South 156 180 7,000  Level Indianapolis Center
Wed 09:58:13 PM 37.7319 -81.4719 153° Southeast 158 182 7,000  Level Indianapolis Center
Wed 09:59:15 PM 37.6933 -81.4486 154° Southeast 158 182 7,000  Level Indianapolis Center
Wed 10:00:16 PM 37.6458 -81.4194 154° Southeast 162 186 7,000  Level Indianapolis Center

Login

Don't have an account? Register now (free) for customized features, flight alerts, and more!